Malaspina — WI6803 — position and weather

sailwx.info

Track history (hours):
 
Tides and Currents Weather Stations Pressure Air Temp Water Temp Dewpoint Dewpoint Depression Visibility Wind Speed Wind Dir Waves Ship Positions

Malaspina

Owner: ALASKA, STATE OF, ANCHORAGE, AK. More information available from US FCC via Universal Licensing System and Coast Guard Vessel Documentation Center.

Last reported at 2019-Oct-18 14:02 UTC. Time now 2019-Oct-18 23:20 UTC.
Position N 54°32' W 130°39'.

Type: Passenger vessel. MMSI: 367143000.

Date/timePositionNaut miles runAvg speedWind from/ knotsBaromVisibWave heightAir tempDewpointWater temp
2019-Oct-18 14:02N 54°32' W 130°39'316.6
2019-Oct-18 13:51N 54°29' W 130°38'616.8
2019-Oct-18 13:30N 54°23' W 130°36'917.4
2019-Oct-18 13:01N 54°15' W 130°31'917.4
2019-Oct-18 12:31N 54°08' W 130°23'815.1
2019-Oct-18 12:00N 54°02' W 130°14'816.5
2019-Oct-18 11:30N 53°54' W 130°09'917.0
2019-Oct-18 11:00N 53°49' W 129°58'8315.2
2019-Oct-18 05:34N 52°44' W 128°34'116.3
2019-Oct-18 05:29N 52°42' W 128°34'714.7
2019-Oct-18 05:00N 52°36' W 128°29'816.1
2019-Oct-18 04:30N 52°28' W 128°27'816.1
2019-Oct-18 04:00N 52°20' W 128°32'510.3
2019-Oct-18 03:30N 52°16' W 128°29'816.7
2019-Oct-18 03:00N 52°14' W 128°16'612.8
2019-Oct-18 02:30N 52°11' W 128°07'510.5
2019-Oct-18 02:00N 52°05' W 128°07'715.0
2019-Oct-18 01:31N 52°03' W 127°56'816.6
2019-Oct-18 01:00N 51°54' W 127°56'917.4
2019-Oct-18 00:31N 51°46' W 127°55'917.2
2019-Oct-18 00:01N 51°37' W 127°53'816.8
2019-Oct-17 23:31N 51°29' W 127°50'510.4
2019-Oct-17 23:00N 51°24' W 127°49'714.3
2019-Oct-17 22:31N 51°19' W 127°57'4 8.7
2019-Oct-17 22:00N 51°16' W 127°52'612.7
2019-Oct-17 21:31N 51°11' W 127°58'5 9.2
2019-Oct-17 21:00N 51°08' W 127°53'714.4
2019-Oct-17 20:30N 51°05' W 127°42'815.7
2019-Oct-17 20:00N 50°59' W 127°34'9016.5
2019-Oct-17 14:34N 50°20' W 125°26'113.9
2019-Oct-17 14:29N 50°20' W 125°25'816.4
2019-Oct-17 14:00N 50°12' W 125°22'611.8
2019-Oct-17 13:30N 50°06' W 125°18'5 9.6
2019-Oct-17 13:00N 50°03' W 125°14'5 9.6
2019-Oct-17 12:30N 49°58' W 125°10'816.1
2019-Oct-17 11:59N 49°53' W 125°01'816.9
2019-Oct-17 11:31N 49°47' W 124°52'712.7
2019-Oct-17 10:58N 49°42' W 124°45'511.2
2019-Oct-17 10:29N 49°38' W 124°39'1111.7
2019-Oct-17 09:33N 49°30' W 124°27'111.3
2019-Oct-17 09:28N 49°30' W 124°26'511.0
2019-Oct-17 09:00N 49°26' W 124°20'611.3
2019-Oct-17 08:30N 49°25' W 124°12'611.3
2019-Oct-17 08:00N 49°23' W 124°03'510.9
2019-Oct-17 07:30N 49°22' W 123°55'510.7
2019-Oct-17 07:00N 49°20' W 123°47'611.1
2019-Oct-17 06:30N 49°17' W 123°41'612.0
2019-Oct-17 06:01N 49°13' W 123°34'714.6
2019-Oct-17 05:30N 49°07' W 123°26'714.4
2019-Oct-17 05:00N 49°03' W 123°18'713.9
2019-Oct-17 04:30N 48°58' W 123°11'713.8
2019-Oct-17 04:00N 48°53' W 123°03'714.6
2019-Oct-17 03:30N 48°49' W 122°54'815.8
2019-Oct-17 03:00N 48°44' W 122°45'815.9
2019-Oct-17 02:30N 48°38' W 122°36'2 4.9
2019-Oct-17 02:00N 48°40' W 122°34'2 4.0
2019-Oct-17 01:30N 48°42' W 122°33'2 4.4
2019-Oct-17 01:00N 48°43' W 122°31'0 0.0
2019-Oct-17 00:27N 48°43' W 122°31'0 0.0
2019-Oct-16 23:51N 48°43' W 122°31'0 0.0
2019-Oct-16 23:27N 48°43' W 122°31'0 0.0
2019-Oct-16 22:57N 48°43' W 122°31'0 0.0
2019-Oct-16 22:21N 48°43' W 122°31'0 0.0
2019-Oct-16 21:57N 48°43' W 122°31'0 0.0
2019-Oct-16 21:30N 48°43' W 122°31'0 0.0
2019-Oct-16 20:54N 48°43' W 122°31'0 0.0
2019-Oct-16 20:27N 48°43' W 122°31'0 0.0
2019-Oct-16 20:00N 48°43' W 122°31'0 0.0
2019-Oct-16 19:30N 48°43' W 122°31'0 0.0
2019-Oct-16 19:00N 48°43' W 122°31'0 0.0
2019-Oct-16 18:27N 48°43' W 122°31'0 0.0
2019-Oct-16 18:00N 48°43' W 122°31'0 0.0
2019-Oct-16 17:30N 48°43' W 122°31'0 0.3
2019-Oct-16 17:00N 48°44' W 122°31'4 8.9
2019-Oct-16 16:30N 48°40' W 122°34'611.8
2019-Oct-16 16:01N 48°40' W 122°43'714.5
2019-Oct-16 15:31N 48°46' W 122°50'815.7
2019-Oct-16 15:01N 48°50' W 122°60'815.4
2019-Oct-16 14:31N 48°54' W 123°09'815.4
2019-Oct-16 14:00N 48°59' W 123°18'815.2
2019-Oct-16 13:31N 49°04' W 123°27'815.0
2019-Oct-16 13:00N 49°10' W 123°34'715.0
2019-Oct-16 12:30N 49°16' W 123°41'714.7
2019-Oct-16 12:00N 49°21' W 123°49'815.2
2019-Oct-16 11:31N 49°23' W 124°00'815.0
2019-Oct-16 11:00N 49°24' W 124°12'714.5
2019-Oct-16 10:30N 49°27' W 124°22'715.0
2019-Oct-16 10:00N 49°33' W 124°30'815.0
2019-Oct-16 09:29N 49°38' W 124°39'715.0
2019-Oct-16 09:00N 49°43' W 124°47'715.0
2019-Oct-16 08:30N 49°48' W 124°55'815.7
2019-Oct-16 08:00N 49°54' W 125°03'815.6
2019-Oct-16 07:30N 49°60' W 125°12'5 9.8
2019-Oct-16 07:00N 50°04' W 125°15'5 9.8
2019-Oct-16 06:30N 50°07' W 125°21'611.7
2019-Oct-16 06:00N 50°13' W 125°23'611.4
2019-Oct-16 05:30N 50°19' W 125°25'6512.5
2019-Oct-16 00:20N 50°44' W 126°59'2614.2
2019-Oct-15 22:30N 50°59' W 127°32'713.1
2019-Oct-15 21:59N 51°03' W 127°40'613.1
2019-Oct-15 21:30N 51°06' W 127°49'510.5
2019-Oct-15 21:00N 51°10' W 127°55'612.7
2019-Oct-15 20:30N 51°16' W 127°53'713.5
2019-Oct-15 20:00N 51°23' W 127°51'714.4
2019-Oct-15 19:30N 51°30' W 127°51'815.4
2019-Oct-15 19:01N 51°37' W 127°53'815.5
2019-Oct-15 18:31N 51°45' W 127°55'815.9
2019-Oct-15 18:01N 51°53' W 127°56'816.6
2019-Oct-15 17:31N 52°01' W 127°56'613.0
2019-Oct-15 17:01N 52°05' W 128°05'510.7
2019-Oct-15 16:30N 52°10' W 128°08'4 7.9
2019-Oct-15 16:00N 52°13' W 128°10'815.4
2019-Oct-15 15:30N 52°15' W 128°22'613.0
2019-Oct-15 15:00N 52°15' W 128°33'510.3
2019-Oct-15 14:30N 52°20' W 128°32'714.3
2019-Oct-15 14:01N 52°27' W 128°28'815.7
2019-Oct-15 13:30N 52°34' W 128°29'815.4
2019-Oct-15 12:58N 52°42' W 128°34'7813.7
2019-Oct-15 07:15N 53°45' W 129°52'414.9
2019-Oct-15 07:01N 53°47' W 129°57'714.5
2019-Oct-15 06:30N 53°53' W 130°05'713.6
2019-Oct-15 06:00N 53°58' W 130°12'714.1
2019-Oct-15 05:30N 54°04' W 130°17'714.9
2019-Oct-15 05:00N 54°10' W 130°26'815.1
2019-Oct-15 04:30N 54°16' W 130°33'714.7
2019-Oct-15 04:00N 54°23' W 130°36'815.6
2019-Oct-15 03:30N 54°31' W 130°39'714.3
2019-Oct-15 03:00N 54°38' W 130°43'714.4
2019-Oct-15 02:30N 54°43' W 130°51'714.0
2019-Oct-15 01:59N 54°49' W 130°58'  
2019-Oct-11 13:23N 55°10' W 131°12'2514.2
2019-Oct-11 11:37N 54°47' W 130°57'215.5
2019-Oct-11 11:28N 54°45' W 130°54'816.0
2019-Oct-11 11:00N 54°40' W 130°44'816.2
2019-Oct-11 10:30N 54°33' W 130°39'816.0
2019-Oct-11 10:00N 54°25' W 130°37'715.0
2019-Oct-11 09:30N 54°17' W 130°34'815.1
2019-Oct-11 09:01N 54°11' W 130°26'611.0
2019-Oct-11 08:31N 54°07' W 130°22'816.8
2019-Oct-11 08:00N 53°60' W 130°13'815.7
2019-Oct-11 07:30N 53°53' W 130°06'917.7
2019-Oct-11 07:00N 53°47' W 129°56'8015.4
2019-Oct-11 01:48N 52°44' W 128°33'414.5
2019-Oct-11 01:30N 52°40' W 128°32'714.8
2019-Oct-11 01:00N 52°33' W 128°28'815.7
2019-Oct-11 00:30N 52°25' W 128°29'815.9
2019-Oct-11 00:00N 52°17' W 128°31'816.2
2019-Oct-10 23:30N 52°15' W 128°19'816.5
2019-Oct-10 23:00N 52°12' W 128°06'4 7.8
2019-Oct-10 22:30N 52°08' W 128°08'612.6
2019-Oct-10 22:00N 52°05' W 127°59'713.8
2019-Oct-10 21:31N 51°58' W 127°56'816.2
2019-Oct-10 21:00N 51°50' W 127°55'816.5
2019-Oct-10 20:31N 51°42' W 127°55'816.0
2019-Oct-10 20:01N 51°34' W 127°52'816.0
2019-Oct-10 19:31N 51°26' W 127°51'816.5
2019-Oct-10 19:01N 51°18' W 127°52'815.7
2019-Oct-10 18:30N 51°10' W 127°50'816.2
2019-Oct-10 18:00N 51°04' W 127°41'9616.4
2019-Oct-10 12:10N 50°21' W 125°26'214.8
2019-Oct-10 12:00N 50°18' W 125°25'817.3
2019-Oct-10 11:31N 50°10' W 125°22'612.7
2019-Oct-10 11:00N 50°05' W 125°16'3 6.9
2019-Oct-10 10:30N 50°02' W 125°13'4 8.4
2019-Oct-10 10:00N 49°58' W 125°10'815.9
2019-Oct-10 09:30N 49°53' W 125°01'816.3
2019-Oct-10 09:00N 49°47' W 124°52'916.0
2019-Oct-10 08:25N 49°40' W 124°42'715.9
2019-Oct-10 08:00N 49°36' W 124°35'1116.1
2019-Oct-10 07:18N 49°28' W 124°22'516.3
2019-Oct-10 07:00N 49°25' W 124°16'816.3
2019-Oct-10 06:30N 49°23' W 124°04'815.9
2019-Oct-10 06:00N 49°22' W 123°52'815.5
2019-Oct-10 05:30N 49°17' W 123°42'815.9
2019-Oct-10 05:00N 49°12' W 123°33'815.4
2019-Oct-10 04:30N 49°07' W 123°25'815.4
2019-Oct-10 04:00N 49°01' W 123°16'815.3
2019-Oct-10 03:31N 48°56' W 123°08'713.7
2019-Oct-10 03:00N 48°52' W 122°60'815.4
2019-Oct-10 02:30N 48°47' W 122°50'714.7
2019-Oct-10 02:00N 48°42' W 122°43'612.7
2019-Oct-10 01:30N 48°39' W 122°34'5 8.4
2019-Oct-10 00:57N 48°43' W 122°31'0 0.0
2019-Oct-10 00:27N 48°43' W 122°31'0 0.0
2019-Oct-09 23:57N 48°43' W 122°31'0 0.0
2019-Oct-09 23:21N 48°43' W 122°31'0 0.0
2019-Oct-09 22:57N 48°43' W 122°31'0 0.0
2019-Oct-09 22:27N 48°43' W 122°31'0 0.0
2019-Oct-09 21:57N 48°43' W 122°31'0 0.0
2019-Oct-09 21:27N 48°43' W 122°31'0 0.0
2019-Oct-09 20:57N 48°43' W 122°31'0 0.0
2019-Oct-09 20:21N 48°43' W 122°31'0 0.0
2019-Oct-09 19:57N 48°43' W 122°31'0 0.0
2019-Oct-09 19:21N 48°43' W 122°31'0 0.0
2019-Oct-09 18:57N 48°43' W 122°31'0 0.0
2019-Oct-09 18:27N 48°43' W 122°31'0 0.0
2019-Oct-09 18:00N 48°43' W 122°31'0 0.0
2019-Oct-09 17:21N 48°43' W 122°31'0 0.0
2019-Oct-09 16:57N 48°43' W 122°31'0 0.0
2019-Oct-09 16:21N 48°43' W 122°31'0 0.0
2019-Oct-09 16:00N 48°43' W 122°31'0 0.0
2019-Oct-09 15:27N 48°43' W 122°31'0 0.0
2019-Oct-09 14:57N 48°43' W 122°31'2 3.7
2019-Oct-09 14:31N 48°42' W 122°33'510.7
2019-Oct-09 14:00N 48°39' W 122°39'815.8
2019-Oct-09 13:30N 48°44' W 122°47'815.4
2019-Oct-09 13:00N 48°48' W 122°57'815.8
2019-Oct-09 12:30N 48°53' W 123°06'815.9
2019-Oct-09 12:00N 48°58' W 123°16'816.2
2019-Oct-09 11:30N 49°04' W 123°25'815.4
2019-Oct-09 11:00N 49°09' W 123°33'1314.9
2019-Oct-09 10:06N 49°20' W 123°46'2010.2
2019-Oct-09 08:10N 49°25' W 124°15'210.0
2019-Oct-09 08:00N 49°26' W 124°17'1110.1
2019-Oct-09 06:57N 49°32' W 124°30'510.8
2019-Oct-09 06:27N 49°36' W 124°36'510.8
2019-Oct-09 06:00N 49°40' W 124°41'511.0
2019-Oct-09 05:30N 49°44' W 124°47'511.0
2019-Oct-09 05:00N 49°47' W 124°53'815.0
2019-Oct-09 04:30N 49°53' W 125°01'714.7
2019-Oct-09 04:00N 49°58' W 125°10'611.8
2019-Oct-09 03:30N 50°03' W 125°14'510.7
2019-Oct-09 03:00N 50°07' W 125°19'1213.7
2019-Oct-09 02:07N 50°19' W 125°25'8914.9
2019-Oct-08 20:06N 50°58' W 127°32'216.0
2019-Oct-08 20:00N 50°59' W 127°34'816.0
2019-Oct-08 19:30N 51°05' W 127°42'815.4
2019-Oct-08 19:00N 51°11' W 127°51'815.7
2019-Oct-08 18:30N 51°17' W 127°57'714.9
2019-Oct-08 18:00N 51°24' W 127°51'816.9
2019-Oct-08 17:30N 51°33' W 127°52'816.6
2019-Oct-08 17:00N 51°41' W 127°55'917.3
2019-Oct-08 16:30N 51°49' W 127°56'917.2
2019-Oct-08 16:01N 51°58' W 127°56'714.3
2019-Oct-08 15:30N 52°05' W 127°60'612.3
2019-Oct-08 15:00N 52°08' W 128°08'4 7.5
2019-Oct-08 14:30N 52°12' W 128°07'  
Track history (hours):
 
Tides and Currents Weather Stations Pressure Air Temp Water Temp Dewpoint Dewpoint Depression Visibility Wind Speed Wind Dir Waves Ship Positions

Malaspina

Owner: ALASKA, STATE OF, ANCHORAGE, AK. More information available from US FCC via Universal Licensing System and Coast Guard Vessel Documentation Center.

Last reported at 2019-Oct-18 14:02 UTC. Time now 2019-Oct-18 23:20 UTC.
Position N 54°32' W 130°39'.

Type: Passenger vessel. MMSI: 367143000.

Date/timePositionNaut miles runAvg speedWind from/ knotsBaromVisibWave heightAir tempDewpointWater temp
2019-Oct-18 14:02N 54°32' W 130°39'316.6
2019-Oct-18 13:51N 54°29' W 130°38'616.8
2019-Oct-18 13:30N 54°23' W 130°36'917.4
2019-Oct-18 13:01N 54°15' W 130°31'917.4
2019-Oct-18 12:31N 54°08' W 130°23'815.1
2019-Oct-18 12:00N 54°02' W 130°14'816.5
2019-Oct-18 11:30N 53°54' W 130°09'917.0
2019-Oct-18 11:00N 53°49' W 129°58'8315.2
2019-Oct-18 05:34N 52°44' W 128°34'116.3
2019-Oct-18 05:29N 52°42' W 128°34'714.7
2019-Oct-18 05:00N 52°36' W 128°29'816.1
2019-Oct-18 04:30N 52°28' W 128°27'816.1
2019-Oct-18 04:00N 52°20' W 128°32'510.3
2019-Oct-18 03:30N 52°16' W 128°29'816.7
2019-Oct-18 03:00N 52°14' W 128°16'612.8
2019-Oct-18 02:30N 52°11' W 128°07'510.5
2019-Oct-18 02:00N 52°05' W 128°07'715.0
2019-Oct-18 01:31N 52°03' W 127°56'816.6
2019-Oct-18 01:00N 51°54' W 127°56'917.4
2019-Oct-18 00:31N 51°46' W 127°55'917.2
2019-Oct-18 00:01N 51°37' W 127°53'816.8
2019-Oct-17 23:31N 51°29' W 127°50'510.4
2019-Oct-17 23:00N 51°24' W 127°49'714.3
2019-Oct-17 22:31N 51°19' W 127°57'4 8.7
2019-Oct-17 22:00N 51°16' W 127°52'612.7
2019-Oct-17 21:31N 51°11' W 127°58'5 9.2
2019-Oct-17 21:00N 51°08' W 127°53'714.4
2019-Oct-17 20:30N 51°05' W 127°42'815.7
2019-Oct-17 20:00N 50°59' W 127°34'9016.5
2019-Oct-17 14:34N 50°20' W 125°26'113.9
2019-Oct-17 14:29N 50°20' W 125°25'816.4
2019-Oct-17 14:00N 50°12' W 125°22'611.8
2019-Oct-17 13:30N 50°06' W 125°18'5 9.6
2019-Oct-17 13:00N 50°03' W 125°14'5 9.6
2019-Oct-17 12:30N 49°58' W 125°10'816.1
2019-Oct-17 11:59N 49°53' W 125°01'816.9
2019-Oct-17 11:31N 49°47' W 124°52'712.7
2019-Oct-17 10:58N 49°42' W 124°45'511.2
2019-Oct-17 10:29N 49°38' W 124°39'1111.7
2019-Oct-17 09:33N 49°30' W 124°27'111.3
2019-Oct-17 09:28N 49°30' W 124°26'511.0
2019-Oct-17 09:00N 49°26' W 124°20'611.3
2019-Oct-17 08:30N 49°25' W 124°12'611.3
2019-Oct-17 08:00N 49°23' W 124°03'510.9
2019-Oct-17 07:30N 49°22' W 123°55'510.7
2019-Oct-17 07:00N 49°20' W 123°47'611.1
2019-Oct-17 06:30N 49°17' W 123°41'612.0
2019-Oct-17 06:01N 49°13' W 123°34'714.6
2019-Oct-17 05:30N 49°07' W 123°26'714.4
2019-Oct-17 05:00N 49°03' W 123°18'713.9
2019-Oct-17 04:30N 48°58' W 123°11'713.8
2019-Oct-17 04:00N 48°53' W 123°03'714.6
2019-Oct-17 03:30N 48°49' W 122°54'815.8
2019-Oct-17 03:00N 48°44' W 122°45'815.9
2019-Oct-17 02:30N 48°38' W 122°36'2 4.9
2019-Oct-17 02:00N 48°40' W 122°34'2 4.0
2019-Oct-17 01:30N 48°42' W 122°33'2 4.4
2019-Oct-17 01:00N 48°43' W 122°31'0 0.0
2019-Oct-17 00:27N 48°43' W 122°31'0 0.0
2019-Oct-16 23:51N 48°43' W 122°31'0 0.0
2019-Oct-16 23:27N 48°43' W 122°31'0 0.0
2019-Oct-16 22:57N 48°43' W 122°31'0 0.0
2019-Oct-16 22:21N 48°43' W 122°31'0 0.0
2019-Oct-16 21:57N 48°43' W 122°31'0 0.0
2019-Oct-16 21:30N 48°43' W 122°31'0 0.0
2019-Oct-16 20:54N 48°43' W 122°31'0 0.0
2019-Oct-16 20:27N 48°43' W 122°31'0 0.0
2019-Oct-16 20:00N 48°43' W 122°31'0 0.0
2019-Oct-16 19:30N 48°43' W 122°31'0 0.0
2019-Oct-16 19:00N 48°43' W 122°31'0 0.0
2019-Oct-16 18:27N 48°43' W 122°31'0 0.0
2019-Oct-16 18:00N 48°43' W 122°31'0 0.0
2019-Oct-16 17:30N 48°43' W 122°31'0 0.3
2019-Oct-16 17:00N 48°44' W 122°31'4 8.9
2019-Oct-16 16:30N 48°40' W 122°34'611.8
2019-Oct-16 16:01N 48°40' W 122°43'714.5
2019-Oct-16 15:31N 48°46' W 122°50'815.7
2019-Oct-16 15:01N 48°50' W 122°60'815.4
2019-Oct-16 14:31N 48°54' W 123°09'815.4
2019-Oct-16 14:00N 48°59' W 123°18'815.2
2019-Oct-16 13:31N 49°04' W 123°27'815.0
2019-Oct-16 13:00N 49°10' W 123°34'715.0
2019-Oct-16 12:30N 49°16' W 123°41'714.7
2019-Oct-16 12:00N 49°21' W 123°49'815.2
2019-Oct-16 11:31N 49°23' W 124°00'815.0
2019-Oct-16 11:00N 49°24' W 124°12'714.5
2019-Oct-16 10:30N 49°27' W 124°22'715.0
2019-Oct-16 10:00N 49°33' W 124°30'815.0
2019-Oct-16 09:29N 49°38' W 124°39'715.0
2019-Oct-16 09:00N 49°43' W 124°47'715.0
2019-Oct-16 08:30N 49°48' W 124°55'815.7
2019-Oct-16 08:00N 49°54' W 125°03'815.6
2019-Oct-16 07:30N 49°60' W 125°12'5 9.8
2019-Oct-16 07:00N 50°04' W 125°15'5 9.8
2019-Oct-16 06:30N 50°07' W 125°21'611.7
2019-Oct-16 06:00N 50°13' W 125°23'611.4
2019-Oct-16 05:30N 50°19' W 125°25'6512.5
2019-Oct-16 00:20N 50°44' W 126°59'2614.2
2019-Oct-15 22:30N 50°59' W 127°32'713.1
2019-Oct-15 21:59N 51°03' W 127°40'613.1
2019-Oct-15 21:30N 51°06' W 127°49'510.5
2019-Oct-15 21:00N 51°10' W 127°55'612.7
2019-Oct-15 20:30N 51°16' W 127°53'713.5
2019-Oct-15 20:00N 51°23' W 127°51'714.4
2019-Oct-15 19:30N 51°30' W 127°51'815.4
2019-Oct-15 19:01N 51°37' W 127°53'815.5
2019-Oct-15 18:31N 51°45' W 127°55'815.9
2019-Oct-15 18:01N 51°53' W 127°56'816.6
2019-Oct-15 17:31N 52°01' W 127°56'613.0
2019-Oct-15 17:01N 52°05' W 128°05'510.7
2019-Oct-15 16:30N 52°10' W 128°08'4 7.9
2019-Oct-15 16:00N 52°13' W 128°10'815.4
2019-Oct-15 15:30N 52°15' W 128°22'613.0
2019-Oct-15 15:00N 52°15' W 128°33'510.3
2019-Oct-15 14:30N 52°20' W 128°32'714.3
2019-Oct-15 14:01N 52°27' W 128°28'815.7
2019-Oct-15 13:30N 52°34' W 128°29'815.4
2019-Oct-15 12:58N 52°42' W 128°34'7813.7
2019-Oct-15 07:15N 53°45' W 129°52'414.9
2019-Oct-15 07:01N 53°47' W 129°57'714.5
2019-Oct-15 06:30N 53°53' W 130°05'713.6
2019-Oct-15 06:00N 53°58' W 130°12'714.1
2019-Oct-15 05:30N 54°04' W 130°17'714.9
2019-Oct-15 05:00N 54°10' W 130°26'815.1
2019-Oct-15 04:30N 54°16' W 130°33'714.7
2019-Oct-15 04:00N 54°23' W 130°36'815.6
2019-Oct-15 03:30N 54°31' W 130°39'714.3
2019-Oct-15 03:00N 54°38' W 130°43'714.4
2019-Oct-15 02:30N 54°43' W 130°51'714.0
2019-Oct-15 01:59N 54°49' W 130°58'  
2019-Oct-11 13:23N 55°10' W 131°12'2514.2
2019-Oct-11 11:37N 54°47' W 130°57'215.5
2019-Oct-11 11:28N 54°45' W 130°54'816.0
2019-Oct-11 11:00N 54°40' W 130°44'816.2
2019-Oct-11 10:30N 54°33' W 130°39'816.0
2019-Oct-11 10:00N 54°25' W 130°37'715.0
2019-Oct-11 09:30N 54°17' W 130°34'815.1
2019-Oct-11 09:01N 54°11' W 130°26'611.0
2019-Oct-11 08:31N 54°07' W 130°22'816.8
2019-Oct-11 08:00N 53°60' W 130°13'815.7
2019-Oct-11 07:30N 53°53' W 130°06'917.7
2019-Oct-11 07:00N 53°47' W 129°56'8015.4
2019-Oct-11 01:48N 52°44' W 128°33'414.5
2019-Oct-11 01:30N 52°40' W 128°32'714.8
2019-Oct-11 01:00N 52°33' W 128°28'815.7
2019-Oct-11 00:30N 52°25' W 128°29'815.9
2019-Oct-11 00:00N 52°17' W 128°31'816.2
2019-Oct-10 23:30N 52°15' W 128°19'816.5
2019-Oct-10 23:00N 52°12' W 128°06'4 7.8
2019-Oct-10 22:30N 52°08' W 128°08'612.6
2019-Oct-10 22:00N 52°05' W 127°59'713.8
2019-Oct-10 21:31N 51°58' W 127°56'816.2
2019-Oct-10 21:00N 51°50' W 127°55'816.5
2019-Oct-10 20:31N 51°42' W 127°55'816.0
2019-Oct-10 20:01N 51°34' W 127°52'816.0
2019-Oct-10 19:31N 51°26' W 127°51'816.5
2019-Oct-10 19:01N 51°18' W 127°52'815.7
2019-Oct-10 18:30N 51°10' W 127°50'816.2
2019-Oct-10 18:00N 51°04' W 127°41'9616.4
2019-Oct-10 12:10N 50°21' W 125°26'214.8
2019-Oct-10 12:00N 50°18' W 125°25'817.3
2019-Oct-10 11:31N 50°10' W 125°22'612.7
2019-Oct-10 11:00N 50°05' W 125°16'3 6.9
2019-Oct-10 10:30N 50°02' W 125°13'4 8.4
2019-Oct-10 10:00N 49°58' W 125°10'815.9
2019-Oct-10 09:30N 49°53' W 125°01'816.3
2019-Oct-10 09:00N 49°47' W 124°52'916.0
2019-Oct-10 08:25N 49°40' W 124°42'715.9
2019-Oct-10 08:00N 49°36' W 124°35'1116.1
2019-Oct-10 07:18N 49°28' W 124°22'516.3
2019-Oct-10 07:00N 49°25' W 124°16'816.3
2019-Oct-10 06:30N 49°23' W 124°04'815.9
2019-Oct-10 06:00N 49°22' W 123°52'815.5
2019-Oct-10 05:30N 49°17' W 123°42'815.9
2019-Oct-10 05:00N 49°12' W 123°33'815.4
2019-Oct-10 04:30N 49°07' W 123°25'815.4
2019-Oct-10 04:00N 49°01' W 123°16'815.3
2019-Oct-10 03:31N 48°56' W 123°08'713.7
2019-Oct-10 03:00N 48°52' W 122°60'815.4
2019-Oct-10 02:30N 48°47' W 122°50'714.7
2019-Oct-10 02:00N 48°42' W 122°43'612.7
2019-Oct-10 01:30N 48°39' W 122°34'5 8.4
2019-Oct-10 00:57N 48°43' W 122°31'0 0.0
2019-Oct-10 00:27N 48°43' W 122°31'0 0.0
2019-Oct-09 23:57N 48°43' W 122°31'0 0.0
2019-Oct-09 23:21N 48°43' W 122°31'0 0.0
2019-Oct-09 22:57N 48°43' W 122°31'0 0.0
2019-Oct-09 22:27N 48°43' W 122°31'0 0.0
2019-Oct-09 21:57N 48°43' W 122°31'0 0.0
2019-Oct-09 21:27N 48°43' W 122°31'0 0.0
2019-Oct-09 20:57N 48°43' W 122°31'0 0.0
2019-Oct-09 20:21N 48°43' W 122°31'0 0.0
2019-Oct-09 19:57N 48°43' W 122°31'0 0.0
2019-Oct-09 19:21N 48°43' W 122°31'0 0.0
2019-Oct-09 18:57N 48°43' W 122°31'0 0.0
2019-Oct-09 18:27N 48°43' W 122°31'0 0.0
2019-Oct-09 18:00N 48°43' W 122°31'0 0.0
2019-Oct-09 17:21N 48°43' W 122°31'0 0.0
2019-Oct-09 16:57N 48°43' W 122°31'0 0.0
2019-Oct-09 16:21N 48°43' W 122°31'0 0.0
2019-Oct-09 16:00N 48°43' W 122°31'0 0.0
2019-Oct-09 15:27N 48°43' W 122°31'0 0.0
2019-Oct-09 14:57N 48°43' W 122°31'2 3.7
2019-Oct-09 14:31N 48°42' W 122°33'510.7
2019-Oct-09 14:00N 48°39' W 122°39'815.8
2019-Oct-09 13:30N 48°44' W 122°47'815.4
2019-Oct-09 13:00N 48°48' W 122°57'815.8
2019-Oct-09 12:30N 48°53' W 123°06'815.9
2019-Oct-09 12:00N 48°58' W 123°16'816.2
2019-Oct-09 11:30N 49°04' W 123°25'815.4
2019-Oct-09 11:00N 49°09' W 123°33'1314.9
2019-Oct-09 10:06N 49°20' W 123°46'2010.2
2019-Oct-09 08:10N 49°25' W 124°15'210.0
2019-Oct-09 08:00N 49°26' W 124°17'1110.1
2019-Oct-09 06:57N 49°32' W 124°30'510.8
2019-Oct-09 06:27N 49°36' W 124°36'510.8
2019-Oct-09 06:00N 49°40' W 124°41'511.0
2019-Oct-09 05:30N 49°44' W 124°47'511.0
2019-Oct-09 05:00N 49°47' W 124°53'815.0
2019-Oct-09 04:30N 49°53' W 125°01'714.7
2019-Oct-09 04:00N 49°58' W 125°10'611.8
2019-Oct-09 03:30N 50°03' W 125°14'510.7
2019-Oct-09 03:00N 50°07' W 125°19'1213.7
2019-Oct-09 02:07N 50°19' W 125°25'8914.9
2019-Oct-08 20:06N 50°58' W 127°32'216.0
2019-Oct-08 20:00N 50°59' W 127°34'816.0
2019-Oct-08 19:30N 51°05' W 127°42'815.4
2019-Oct-08 19:00N 51°11' W 127°51'815.7
2019-Oct-08 18:30N 51°17' W 127°57'714.9
2019-Oct-08 18:00N 51°24' W 127°51'816.9
2019-Oct-08 17:30N 51°33' W 127°52'816.6
2019-Oct-08 17:00N 51°41' W 127°55'917.3
2019-Oct-08 16:30N 51°49' W 127°56'917.2
2019-Oct-08 16:01N 51°58' W 127°56'714.3
2019-Oct-08 15:30N 52°05' W 127°60'612.3
2019-Oct-08 15:00N 52°08' W 128°08'4 7.5
2019-Oct-08 14:30N 52°12' W 128°07'  

Dump ship's entire track history